Time;durP1;ratioP1;P1;durP2;ratioP2;P2;SDS_P1;SDS_P2;PMS_P1;PMS_P2;Temp;Humidity;BMP_temperature;BMP_pressure;BME280_temperature;BME280_humidity;BME280_pressure;Samples;Min_cycle;Max_cycle;Signal;HPM_P1;HPM_P2
2021/06/19 00:01:33;;;;;;;4.22;3.10;;;22.70;74.10;;;;;;5096760;28;20078;-74
2021/06/19 00:03:59;;;;;;;3.80;3.00;;;22.70;74.20;;;;;;5096497;28;20077;-74
2021/06/19 00:06:24;;;;;;;3.58;3.08;;;22.70;74.20;;;;;;5096467;28;20074;-74
2021/06/19 00:08:50;;;;;;;3.63;2.85;;;22.70;74.20;;;;;;5096467;28;20050;-73
2021/06/19 00:11:17;;;;;;;3.80;2.90;;;22.70;74.20;;;;;;5096912;28;20059;-75
2021/06/19 00:13:43;;;;;;;3.65;2.90;;;22.70;74.20;;;;;;5096969;28;20355;-73
2021/06/19 00:16:09;;;;;;;4.18;3.35;;;22.70;74.20;;;;;;5096603;28;20039;-75
2021/06/19 00:18:35;;;;;;;3.30;2.78;;;22.60;74.10;;;;;;5096251;28;20437;-74
2021/06/19 00:21:01;;;;;;;3.47;3.17;;;22.70;74.80;;;;;;5096218;28;20048;-74
2021/06/19 00:23:27;;;;;;;3.08;2.78;;;22.70;74.20;;;;;;5096122;28;20055;-74
2021/06/19 00:25:52;;;;;;;4.72;3.50;;;22.60;74.20;;;;;;5096780;28;20055;-73
2021/06/19 00:28:19;;;;;;;3.97;3.00;;;22.60;74.70;;;;;;5095643;28;20127;-74
2021/06/19 00:30:44;;;;;;;3.90;3.20;;;22.60;74.20;;;;;;5096420;28;20071;-73
2021/06/19 00:33:10;;;;;;;3.45;3.10;;;22.60;74.20;;;;;;5096241;28;20506;-73
2021/06/19 00:35:37;;;;;;;4.43;3.08;;;22.60;74.10;;;;;;5095514;28;20439;-75
2021/06/19 00:38:03;;;;;;;4.78;3.13;;;22.60;74.20;;;;;;5096208;28;20052;-74
2021/06/19 00:40:29;;;;;;;3.20;2.80;;;22.60;74.20;;;;;;5096007;28;20439;-73
2021/06/19 00:43:00;;;;;;;3.10;2.80;;;22.60;74.20;;;;;;5095801;28;20131;-75
2021/06/19 00:45:28;;;;;;;5.05;3.53;;;22.60;74.20;;;;;;5096007;28;20048;-74
2021/06/19 00:47:54;;;;;;;4.32;3.42;;;22.60;74.20;;;;;;5095324;28;20051;-74
2021/06/19 00:50:21;;;;;;;4.32;3.38;;;22.60;74.20;;;;;;5095516;28;20112;-75
2021/06/19 00:52:47;;;;;;;4.28;3.85;;;22.60;74.70;;;;;;5095454;28;20044;-72
2021/06/19 00:55:14;;;;;;;3.83;3.30;;;22.60;74.20;;;;;;5096054;28;20041;-73
2021/06/19 00:57:41;;;;;;;3.88;3.30;;;22.60;74.20;;;;;;5095637;28;20098;-73
2021/06/19 01:00:09;;;;;;;4.93;3.67;;;22.60;74.20;;;;;;5095761;28;20055;-74
2021/06/19 01:02:36;;;;;;;4.20;3.45;;;22.60;74.20;;;;;;5095761;28;20066;-74
2021/06/19 01:05:04;;;;;;;4.00;3.60;;;22.60;74.20;;;;;;5095746;28;20051;-73
2021/06/19 01:07:30;;;;;;;3.35;3.03;;;22.50;74.10;;;;;;5095566;28;20051;-73
2021/06/19 01:09:56;;;;;;;3.50;3.03;;;22.60;74.10;;;;;;5095642;28;20055;-73
2021/06/19 01:12:25;;;;;;;3.80;3.45;;;22.60;74.10;;;;;;5095413;28;20047;-75
2021/06/19 01:14:52;;;;;;;4.50;3.38;;;22.60;74.10;;;;;;5094998;28;20101;-74
2021/06/19 01:17:19;;;;;;;4.57;3.30;;;22.60;74.10;;;;;;5095271;28;20047;-73
2021/06/19 01:20:05;;;;;;;3.83;2.80;;;22.60;74.10;;;;;;5095210;28;20109;-74
2021/06/19 01:22:32;;;;;;;3.90;3.38;;;22.50;74.00;;;;;;5094875;28;20078;-73
2021/06/19 01:25:03;;;;;;;4.00;3.58;;;22.50;74.00;;;;;;5095373;28;20043;-75
2021/06/19 01:27:30;;;;;;;4.85;3.60;;;22.50;74.10;;;;;;5095314;28;20127;-73
2021/06/19 01:29:58;;;;;;;3.97;3.08;;;22.50;74.10;;;;;;5095223;28;20071;-73
2021/06/19 01:32:29;;;;;;;4.03;3.17;;;22.50;74.10;;;;;;5095483;28;20044;-74
2021/06/19 01:34:55;;;;;;;4.95;4.05;;;22.50;74.10;;;;;;5095647;28;20040;-75
2021/06/19 01:37:21;;;;;;;4.03;3.30;;;22.50;74.10;;;;;;5095119;28;20118;-72
2021/06/19 01:39:47;;;;;;;4.32;3.80;;;22.50;74.10;;;;;;5096673;28;20491;-73
2021/06/19 01:42:13;;;;;;;5.30;3.28;;;22.50;74.10;;;;;;5098874;28;20044;-73
2021/06/19 01:44:39;;;;;;;5.45;3.60;;;22.50;74.20;;;;;;5098999;28;20040;-74
2021/06/19 01:47:05;;;;;;;4.00;3.60;;;22.50;74.20;;;;;;5099123;28;20055;-73
2021/06/19 01:49:36;;;;;;;6.28;3.80;;;22.50;74.20;;;;;;5099085;28;20097;-74
2021/06/19 01:52:04;;;;;;;4.95;3.53;;;22.50;74.20;;;;;;5099411;28;20051;-73
2021/06/19 01:54:38;;;;;;;4.45;3.53;;;22.50;74.20;;;;;;5099203;28;20112;-73
2021/06/19 01:57:07;;;;;;;4.85;3.88;;;22.50;74.20;;;;;;5098610;28;20143;-74
2021/06/19 01:59:36;;;;;;;5.18;4.45;;;22.50;74.20;;;;;;5099802;28;20055;-75
2021/06/19 02:02:03;;;;;;;6.43;5.22;;;22.50;74.20;;;;;;5099103;28;20464;-73
2021/06/19 02:04:31;;;;;;;5.05;3.90;;;22.50;74.30;;;;;;5099539;28;20134;-73
2021/06/19 02:06:57;;;;;;;5.65;4.10;;;22.50;74.20;;;;;;5098412;28;20468;-73
2021/06/19 02:09:23;;;;;;;5.47;4.15;;;22.50;74.20;;;;;;5098625;28;20051;-74
2021/06/19 02:11:49;;;;;;;5.10;4.00;;;22.50;74.20;;;;;;5098705;28;20101;-75
2021/06/19 02:14:16;;;;;;;4.75;4.35;;;22.50;74.20;;;;;;5098592;28;20473;-74
2021/06/19 02:16:45;;;;;;;4.50;3.83;;;22.50;74.20;;;;;;5099212;28;20068;-74
2021/06/19 02:19:11;;;;;;;4.25;3.85;;;22.50;74.20;;;;;;5098694;28;20044;-74
2021/06/19 02:21:37;;;;;;;4.18;3.78;;;22.50;74.20;;;;;;5098558;28;20040;-73
2021/06/19 02:24:03;;;;;;;4.70;4.20;;;22.50;74.20;;;;;;5098181;28;20043;-75
2021/06/19 02:26:29;;;;;;;4.45;3.67;;;22.50;74.20;;;;;;5098288;28;20040;-74
2021/06/19 02:28:55;;;;;;;5.60;4.13;;;22.50;74.10;;;;;;5098353;28;20450;-74
2021/06/19 02:31:23;;;;;;;5.07;4.53;;;22.50;74.10;;;;;;5098347;28;20093;-75
2021/06/19 02:33:48;;;;;;;4.60;4.20;;;22.50;74.10;;;;;;5098446;28;20047;-72
2021/06/19 02:36:15;;;;;;;3.90;3.50;;;22.50;74.20;;;;;;5097878;28;20055;-74
2021/06/19 02:38:41;;;;;;;4.82;3.85;;;22.50;74.10;;;;;;5098052;28;20052;-74
2021/06/19 02:41:07;;;;;;;4.30;3.90;;;22.50;74.00;;;;;;5097905;28;20046;-73
2021/06/19 02:43:32;;;;;;;4.93;4.40;;;22.50;74.00;;;;;;5097887;28;20052;-74
2021/06/19 02:46:00;;;;;;;5.60;4.68;;;22.50;74.00;;;;;;5098392;28;20124;-73
2021/06/19 02:48:29;;;;;;;5.65;4.45;;;22.50;74.00;;;;;;5098152;28;20048;-74
2021/06/19 02:50:55;;;;;;;5.10;4.60;;;22.50;74.10;;;;;;5097036;28;20075;-73
2021/06/19 02:53:21;;;;;;;4.95;4.38;;;22.50;74.10;;;;;;5097566;28;20128;-75
2021/06/19 02:55:47;;;;;;;4.38;3.97;;;22.50;74.10;;;;;;5098159;28;20050;-74
2021/06/19 02:58:14;;;;;;;5.13;4.63;;;22.50;74.10;;;;;;5097470;28;20447;-74
2021/06/19 03:00:41;;;;;;;4.78;4.38;;;22.50;74.10;;;;;;5097861;28;20131;-75
2021/06/19 03:03:08;;;;;;;5.63;4.68;;;22.50;74.20;;;;;;5098081;28;20044;-74
2021/06/19 03:05:35;;;;;;;5.28;4.82;;;22.50;74.20;;;;;;5098369;28;20140;-73
2021/06/19 03:08:02;;;;;;;5.03;4.47;;;22.50;74.20;;;;;;5097815;28;20044;-74
2021/06/19 03:10:31;;;;;;;5.18;4.15;;;22.50;74.20;;;;;;5097984;28;20123;-74
2021/06/19 03:12:57;;;;;;;5.45;4.35;;;22.50;74.20;;;;;;5097592;28;20051;-76
2021/06/19 03:15:24;;;;;;;4.53;4.13;;;22.50;74.20;;;;;;5097672;28;20059;-74
2021/06/19 03:17:51;;;;;;;4.70;4.20;;;22.50;74.20;;;;;;5097470;28;20075;-75
2021/06/19 03:20:18;;;;;;;4.95;4.55;;;22.50;74.20;;;;;;5097490;28;20076;-75
2021/06/19 03:22:50;;;;;;;4.22;3.85;;;22.50;74.20;;;;;;5097164;28;20058;-75
2021/06/19 03:25:19;;;;;;;5.20;4.30;;;22.50;74.20;;;;;;5097391;28;20051;-73
2021/06/19 03:27:46;;;;;;;4.95;4.10;;;22.50;74.10;;;;;;5097222;28;20040;-74
2021/06/19 03:30:15;;;;;;;4.72;4.18;;;22.50;74.10;;;;;;5097242;28;20052;-73
2021/06/19 03:32:42;;;;;;;4.40;3.97;;;22.50;74.10;;;;;;5096763;28;20105;-73
2021/06/19 03:35:09;;;;;;;4.47;4.05;;;22.50;74.10;;;;;;5097065;28;20047;-73
2021/06/19 03:37:35;;;;;;;4.43;3.88;;;22.50;74.10;;;;;;5097136;28;20043;-73
2021/06/19 03:40:03;;;;;;;4.90;4.00;;;22.50;74.10;;;;;;5097045;28;20366;-75
2021/06/19 03:42:29;;;;;;;4.60;4.15;;;22.50;74.10;;;;;;5097338;28;20040;-74
2021/06/19 03:44:55;;;;;;;4.95;4.22;;;22.50;74.10;;;;;;5096565;28;20036;-74
2021/06/19 03:47:21;;;;;;;6.00;3.58;;;22.50;74.70;;;;;;5096739;28;20032;-72
2021/06/19 03:49:47;;;;;;;4.32;3.92;;;22.50;74.10;;;;;;5096484;28;20054;-73
2021/06/19 03:52:12;;;;;;;4.10;3.70;;;22.50;74.00;;;;;;5096531;28;20040;-74
2021/06/19 03:54:38;;;;;;;4.45;3.67;;;22.50;74.10;;;;;;5096941;28;20108;-73
2021/06/19 03:57:05;;;;;;;4.00;3.60;;;22.50;74.00;;;;;;5096401;28;20364;-73
2021/06/19 03:59:32;;;;;;;3.78;3.40;;;22.50;74.00;;;;;;5097356;28;20083;-74
2021/06/19 04:01:58;;;;;;;4.35;3.95;;;22.50;74.00;;;;;;5096813;28;20040;-74
2021/06/19 04:04:24;;;;;;;4.72;4.20;;;22.50;74.00;;;;;;5096983;28;20093;-74
2021/06/19 04:06:50;;;;;;;5.25;4.00;;;22.50;74.00;;;;;;5096395;28;20465;-74
2021/06/19 04:09:16;;;;;;;3.85;3.40;;;22.40;74.00;;;;;;5097155;28;20040;-74
2021/06/19 04:11:42;;;;;;;4.13;3.83;;;22.50;74.00;;;;;;5097202;28;20044;-73
2021/06/19 04:14:09;;;;;;;4.40;4.00;;;22.40;73.90;;;;;;5096665;28;20344;-72
2021/06/19 04:16:35;;;;;;;5.63;4.28;;;22.40;73.90;;;;;;5096250;28;20054;-74
2021/06/19 04:19:01;;;;;;;4.28;3.83;;;22.40;74.00;;;;;;5097546;28;20359;-75
2021/06/19 04:21:27;;;;;;;4.82;4.32;;;22.50;74.00;;;;;;5110931;28;20048;-73
2021/06/19 04:23:53;;;;;;;4.35;3.95;;;22.40;74.00;;;;;;5116718;28;20445;-75
2021/06/19 04:26:20;;;;;;;4.70;4.30;;;22.50;74.00;;;;;;5116883;28;20044;-80
2021/06/19 04:28:46;;;;;;;6.25;5.00;;;22.40;74.00;;;;;;5115618;28;20427;-77
2021/06/19 04:31:12;;;;;;;7.25;6.30;;;22.40;74.30;;;;;;5116100;28;20441;-75
2021/06/19 04:33:39;;;;;;;6.40;5.65;;;22.40;74.70;;;;;;5116027;28;20509;-76
2021/06/19 04:36:07;;;;;;;8.80;6.72;;;22.40;74.70;;;;;;5116460;28;20126;-77
2021/06/19 04:38:32;;;;;;;8.07;5.65;;;22.40;75.00;;;;;;5116401;28;20062;-76
2021/06/19 04:41:08;;;;;;;10.23;6.93;;;22.40;75.00;;;;;;5116452;28;20051;-75
2021/06/19 04:43:53;;;;;;;12.75;9.52;;;22.40;74.80;;;;;;5116299;28;20040;-76
2021/06/19 04:46:18;;;;;;;16.02;12.30;;;22.40;75.00;;;;;;5116632;28;20040;-77
2021/06/19 04:48:44;;;;;;;21.08;12.43;;;22.30;75.20;;;;;;5116211;28;20473;-75
2021/06/19 04:51:12;;;;;;;17.02;11.70;;;22.40;75.30;;;;;;5116005;28;20105;-76
2021/06/19 04:53:38;;;;;;;20.02;12.43;;;22.40;75.40;;;;;;5116424;28;20222;-74
2021/06/19 04:56:04;;;;;;;16.77;13.15;;;22.30;75.30;;;;;;5115787;28;20155;-74
2021/06/19 04:58:30;;;;;;;17.10;14.25;;;22.30;75.40;;;;;;5116016;28;20070;-69
2021/06/19 05:00:55;;;;;;;19.30;15.05;;;22.30;75.50;;;;;;5115288;28;20447;-76
2021/06/19 05:03:23;;;;;;;19.15;15.45;;;22.30;75.50;;;;;;5116538;28;20450;-77
2021/06/19 05:05:51;;;;;;;20.92;15.68;;;22.30;75.50;;;;;;5116073;28;20039;-73
2021/06/19 05:08:17;;;;;;;24.67;16.05;;;22.30;75.40;;;;;;5115773;28;20044;-76
2021/06/19 05:10:43;;;;;;;20.75;17.05;;;22.30;75.40;;;;;;5116063;28;20050;-73
2021/06/19 05:13:09;;;;;;;25.42;19.63;;;22.30;75.50;;;;;;5116185;28;20040;-78
2021/06/19 05:15:36;;;;;;;25.98;19.40;;;22.30;75.30;;;;;;5115079;28;20046;-77
2021/06/19 05:18:04;;;;;;;22.95;17.77;;;22.30;75.00;;;;;;5131709;27;20050;-76
2021/06/19 05:20:31;;;;;;;21.13;18.83;;;22.20;74.90;;;;;;5119008;27;20510;-75
2021/06/19 05:22:59;;;;;;;19.67;16.25;;;22.10;75.00;;;;;;5130762;27;20191;-76
2021/06/19 05:25:26;;;;;;;19.15;15.40;;;22.10;74.90;;;;;;5124468;28;20043;-76
2021/06/19 05:27:52;;;;;;;18.30;14.02;;;22.00;74.60;;;;;;5108731;27;20048;-77
2021/06/19 05:30:19;;;;;;;15.20;13.57;;;21.90;74.50;;;;;;5101484;28;20132;-75
2021/06/19 05:32:45;;;;;;;14.50;12.63;;;21.90;74.40;;;;;;5116254;28;20051;-74
2021/06/19 05:35:12;;;;;;;13.55;12.15;;;21.80;74.30;;;;;;5105607;28;20409;-74
2021/06/19 05:37:38;;;;;;;13.25;11.07;;;21.80;74.30;;;;;;5094935;28;20058;-75
2021/06/19 05:40:06;;;;;;;12.50;10.98;;;21.80;74.20;;;;;;5095857;28;20417;-76
2021/06/19 05:42:32;;;;;;;11.45;10.25;;;21.80;74.00;;;;;;5095136;28;20224;-72
2021/06/19 05:44:58;;;;;;;10.98;9.82;;;21.70;74.00;;;;;;5099079;28;20062;-73
2021/06/19 05:47:23;;;;;;;11.20;9.98;;;21.70;74.20;;;;;;5095021;28;20036;-75
2021/06/19 05:49:49;;;;;;;10.32;8.95;;;21.70;74.10;;;;;;5094599;28;20459;-76
2021/06/19 05:52:15;;;;;;;11.68;9.43;;;21.70;74.10;;;;;;5095062;28;20451;-77
2021/06/19 05:54:41;;;;;;;10.15;8.93;;;21.70;74.20;;;;;;5095015;28;20108;-76
2021/06/19 05:57:08;;;;;;;10.55;9.35;;;21.60;74.30;;;;;;5093717;28;20359;-76
2021/06/19 05:59:35;;;;;;;10.05;9.05;;;21.60;74.50;;;;;;5094894;28;20056;-76
2021/06/19 06:02:04;;;;;;;11.80;9.02;;;21.60;74.30;;;;;;5095055;28;20047;-74
2021/06/19 06:04:31;;;;;;;10.13;9.05;;;21.60;74.60;;;;;;5095131;28;20067;-78
2021/06/19 06:06:57;;;;;;;11.10;9.77;;;21.60;74.60;;;;;;5096538;28;20484;-76
2021/06/19 06:09:22;;;;;;;11.35;10.15;;;21.60;74.70;;;;;;5094869;28;20043;-75
2021/06/19 06:11:48;;;;;;;10.82;9.73;;;21.70;74.20;;;;;;5094854;28;20451;-76
2021/06/19 06:14:14;;;;;;;12.45;9.57;;;21.60;74.00;;;;;;5094966;28;20044;-75
2021/06/19 06:16:40;;;;;;;14.98;8.65;;;21.70;74.10;;;;;;5094747;28;20119;-75
2021/06/19 06:19:06;;;;;;;11.65;7.80;;;21.60;74.40;;;;;;5094906;28;20040;-76
2021/06/19 06:21:32;;;;;;;10.93;7.70;;;21.70;75.30;;;;;;5094753;28;20040;-78
2021/06/19 06:23:58;;;;;;;11.35;7.45;;;21.80;75.50;;;;;;5094587;28;20042;-78
2021/06/19 06:26:24;;;;;;;12.25;10.20;;;21.80;74.80;;;;;;5096740;28;20039;-77
2021/06/19 06:28:50;;;;;;;12.30;10.25;;;21.90;73.40;;;;;;5098337;28;20378;-79
2021/06/19 06:31:15;;;;;;;11.75;9.57;;;21.90;73.40;;;;;;5098401;28;20044;-77
2021/06/19 06:33:41;;;;;;;11.85;9.32;;;21.80;73.30;;;;;;5110842;28;20363;-73
2021/06/19 06:36:08;;;;;;;12.60;9.50;;;21.70;73.30;;;;;;5113070;28;20123;-74
2021/06/19 06:38:33;;;;;;;12.63;9.45;;;21.70;73.40;;;;;;5098558;28;20111;-73
2021/06/19 06:40:59;;;;;;;11.10;9.10;;;21.70;73.50;;;;;;5099041;28;20032;-74
2021/06/19 06:43:25;;;;;;;11.55;10.05;;;21.70;73.50;;;;;;5097904;28;20052;-76
2021/06/19 06:45:51;;;;;;;10.88;9.77;;;21.70;73.40;;;;;;5110311;28;20108;-76
2021/06/19 06:48:17;;;;;;;11.10;9.30;;;21.60;73.30;;;;;;5102759;28;20052;-79
2021/06/19 06:50:43;;;;;;;11.68;9.73;;;21.50;73.50;;;;;;5104932;28;20055;-78
2021/06/19 06:53:09;;;;;;;12.90;9.15;;;21.50;74.00;;;;;;5118473;28;20459;-75
2021/06/19 06:55:35;;;;;;;10.45;8.07;;;21.50;74.10;;;;;;5106551;28;20075;-80
2021/06/19 06:58:01;;;;;;;16.48;9.05;;;21.50;74.30;;;;;;5097532;28;20056;-79
2021/06/19 07:00:27;;;;;;;11.82;8.07;;;21.50;74.60;;;;;;5108742;28;20047;-80
2021/06/19 07:02:53;;;;;;;10.73;7.57;;;21.50;74.80;;;;;;5109451;28;20047;-77
2021/06/19 07:05:19;;;;;;;12.00;7.28;;;21.60;75.10;;;;;;5116346;28;20042;-77
2021/06/19 07:07:45;;;;;;;10.88;7.13;;;21.60;75.10;;;;;;5117798;28;20051;-77
2021/06/19 07:10:13;;;;;;;10.23;7.22;;;21.60;75.00;;;;;;5117579;28;20059;-76
2021/06/19 07:12:42;;;;;;;10.57;6.25;;;21.70;75.20;;;;;;5102734;28;20040;-75
2021/06/19 07:15:13;;;;;;;12.35;6.82;;;21.70;75.30;;;;;;5102064;28;20427;-76
2021/06/19 07:17:39;;;;;;;11.52;7.85;;;21.70;75.20;;;;;;5107623;28;20370;-81
2021/06/19 07:20:07;;;;;;;10.35;7.18;;;21.80;75.00;;;;;;5117180;28;20044;-76
2021/06/19 07:22:34;;;;;;;11.10;7.43;;;21.80;74.80;;;;;;5116974;28;20454;-78
2021/06/19 07:25:01;;;;;;;8.70;6.90;;;21.90;75.20;;;;;;5110254;28;20420;-79
2021/06/19 07:27:28;;;;;;;11.15;7.45;;;21.80;74.30;;;;;;5117577;28;20050;-78
2021/06/19 07:29:54;;;;;;;9.40;6.75;;;21.90;74.20;;;;;;5114122;28;20105;-77
2021/06/19 07:32:20;;;;;;;8.70;6.55;;;21.80;74.00;;;;;;5115630;28;20454;-77
2021/06/19 07:34:45;;;;;;;10.00;6.43;;;21.90;74.10;;;;;;5115234;28;20097;-78
2021/06/19 07:37:12;;;;;;;9.95;6.32;;;21.90;74.00;;;;;;5116460;28;20126;-77
2021/06/19 07:39:38;;;;;;;12.07;6.65;;;21.80;73.90;;;;;;5117339;28;20131;-79
2021/06/19 07:42:04;;;;;;;8.55;5.90;;;21.80;73.90;;;;;;5103965;28;20126;-77
2021/06/19 07:44:31;;;;;;;12.75;5.10;;;21.80;74.10;;;;;;5115392;28;20043;-77
2021/06/19 07:46:58;;;;;;;6.93;4.97;;;21.90;74.00;;;;;;5106035;28;20059;-77
2021/06/19 07:49:26;;;;;;;8.85;4.97;;;21.90;73.30;;;;;;5113913;28;20419;-76
2021/06/19 07:51:51;;;;;;;8.98;4.30;;;21.90;73.20;;;;;;5117252;28;20040;-73
2021/06/19 07:54:17;;;;;;;11.75;4.53;;;21.80;73.30;;;;;;5099865;28;20040;-76
2021/06/19 07:56:45;;;;;;;6.38;3.65;;;21.90;73.50;;;;;;5112815;28;20119;-74
2021/06/19 07:59:11;;;;;;;12.07;4.32;;;21.90;73.60;;;;;;5109762;28;20052;-73
2021/06/19 08:01:37;;;;;;;17.02;4.10;;;21.90;73.70;;;;;;5103054;28;20044;-73
2021/06/19 08:04:03;;;;;;;15.82;3.83;;;22.00;73.60;;;;;;5097630;28;20412;-74
2021/06/19 08:06:29;;;;;;;9.25;3.15;;;22.00;73.50;;;;;;5097094;28;20070;-73
2021/06/19 08:08:54;;;;;;;11.30;3.08;;;21.90;73.40;;;;;;5096517;28;20070;-74
2021/06/19 08:11:23;;;;;;;17.33;4.20;;;22.00;73.60;;;;;;5097324;28;20161;-74
2021/06/19 08:13:50;;;;;;;13.52;3.35;;;22.00;73.60;;;;;;5114269;28;20052;-74
2021/06/19 08:16:18;;;;;;;18.95;3.25;;;22.10;73.70;;;;;;5104615;28;20108;-74
2021/06/19 08:18:45;;;;;;;13.40;3.22;;;22.10;73.80;;;;;;5103151;28;20059;-74
2021/06/19 08:21:12;;;;;;;19.15;3.70;;;22.10;73.80;;;;;;5096376;28;20105;-73
2021/06/19 08:23:38;;;;;;;18.10;3.50;;;22.10;73.80;;;;;;5096476;28;20047;-73
2021/06/19 08:26:04;;;;;;;17.60;3.63;;;22.10;73.80;;;;;;5096497;28;20044;-74
2021/06/19 08:28:32;;;;;;;12.30;3.00;;;22.20;73.90;;;;;;5108883;28;20055;-73
2021/06/19 08:30:58;;;;;;;14.93;2.80;;;22.20;73.80;;;;;;5116470;28;20047;-74
2021/06/19 08:33:24;;;;;;;10.98;2.75;;;22.20;73.70;;;;;;5115667;28;20035;-75
2021/06/19 08:35:49;;;;;;;8.65;2.22;;;22.20;73.50;;;;;;5116058;28;20044;-77
2021/06/19 08:38:16;;;;;;;8.75;2.63;;;22.20;73.40;;;;;;5114739;28;20465;-74
2021/06/19 08:40:42;;;;;;;7.97;2.65;;;22.20;73.50;;;;;;5116927;28;20093;-72
2021/06/19 08:43:08;;;;;;;9.98;2.65;;;22.20;73.40;;;;;;5116598;28;20070;-72
2021/06/19 08:45:34;;;;;;;10.45;2.97;;;22.20;72.90;;;;;;5115863;28;20097;-76
2021/06/19 08:48:04;;;;;;;7.43;2.15;;;22.20;72.60;;;;;;5108603;28;20042;-73
2021/06/19 08:50:30;;;;;;;6.15;2.45;;;22.20;72.60;;;;;;5094872;28;20044;-72
2021/06/19 08:53:00;;;;;;;9.18;2.05;;;22.20;72.70;;;;;;5095404;28;20043;-73
2021/06/19 08:55:26;;;;;;;7.93;2.05;;;22.20;72.70;;;;;;5095807;28;20132;-73
2021/06/19 08:57:52;;;;;;;11.50;2.55;;;22.20;72.70;;;;;;5100543;28;20055;-74
2021/06/19 09:00:19;;;;;;;11.63;2.10;;;22.30;72.70;;;;;;5112604;28;20096;-73
2021/06/19 09:02:47;;;;;;;5.35;1.63;;;22.30;72.70;;;;;;5115743;28;20461;-74
2021/06/19 09:05:15;;;;;;;6.10;1.90;;;22.30;72.70;;;;;;5116114;28;20050;-74
2021/06/19 09:07:49;;;;;;;6.85;2.03;;;22.30;72.70;;;;;;5115008;28;20036;-73
2021/06/19 09:10:19;;;;;;;8.00;1.95;;;22.30;72.60;;;;;;5115998;28;20051;-73
2021/06/19 09:13:05;;;;;;;6.28;1.75;;;22.30;72.60;;;;;;5115420;28;20462;-74
2021/06/19 09:15:38;;;;;;;4.47;1.70;;;22.30;73.30;;;;;;5115850;28;20050;-73
2021/06/19 09:18:09;;;;;;;3.10;1.33;;;22.30;72.70;;;;;;5109226;28;20039;-73
2021/06/19 09:20:50;;;;;;;9.43;1.95;;;22.30;72.70;;;;;;5095950;28;20100;-72
2021/06/19 09:23:27;;;;;;;4.75;1.80;;;22.30;72.70;;;;;;5094924;28;20052;-73
2021/06/19 09:26:15;;;;;;;4.68;1.40;;;22.30;72.60;;;;;;5095233;28;20499;-74
2021/06/19 09:29:05;;;;;;;3.25;1.30;;;22.30;72.60;;;;;;5105791;28;20040;-72
2021/06/19 09:31:51;;;;;;;2.97;1.63;;;22.30;72.50;;;;;;5115594;28;20374;-73
2021/06/19 09:34:20;;;;;;;3.50;1.67;;;22.30;72.40;;;;;;5115586;28;20044;-74
2021/06/19 09:36:52;;;;;;;5.18;1.67;;;22.30;72.40;;;;;;5116125;28;20116;-74
2021/06/19 09:39:29;;;;;;;5.43;1.40;;;22.30;72.30;;;;;;5111835;28;20375;-74
2021/06/19 09:41:57;;;;;;;3.85;1.63;;;22.40;72.30;;;;;;5099704;28;20454;-74
2021/06/19 09:44:42;;;;;;;5.32;1.55;;;22.30;72.30;;;;;;5095688;28;20132;-73
2021/06/19 09:47:10;;;;;;;4.00;1.25;;;22.30;72.10;;;;;;5095277;28;20404;-73
2021/06/19 09:49:40;;;;;;;4.75;1.67;;;22.40;72.10;;;;;;5113514;28;20040;-73
2021/06/19 09:52:10;;;;;;;4.25;1.58;;;22.30;72.10;;;;;;5111634;28;20035;-73
2021/06/19 09:54:41;;;;;;;2.88;1.52;;;22.30;72.20;;;;;;5114083;28;20043;-75
2021/06/19 09:57:14;;;;;;;3.58;2.33;;;22.30;72.00;;;;;;5115581;28;20044;-71
2021/06/19 09:59:43;;;;;;;3.45;2.60;;;22.30;71.20;;;;;;5114021;28;20059;-72
2021/06/19 10:02:30;;;;;;;5.03;2.33;;;22.30;70.70;;;;;;5118963;28;20051;-72
2021/06/19 10:04:57;;;;;;;4.15;2.38;;;22.20;70.30;;;;;;5119426;28;20043;-72
2021/06/19 10:07:28;;;;;;;3.50;2.10;;;22.20;70.10;;;;;;5119376;28;20063;-71
2021/06/19 10:09:56;;;;;;;3.58;2.30;;;22.10;69.70;;;;;;5102522;28;20132;-73
2021/06/19 10:12:27;;;;;;;3.53;2.03;;;22.10;69.80;;;;;;5119150;28;20082;-72
2021/06/19 10:15:10;;;;;;;2.03;1.48;;;22.00;70.10;;;;;;5119920;28;20051;-72
2021/06/19 10:17:38;;;;;;;2.35;1.73;;;22.10;70.50;;;;;;5117256;28;20120;-72
2021/06/19 10:20:08;;;;;;;2.85;1.40;;;22.10;70.60;;;;;;5098276;28;20067;-72
2021/06/19 10:22:35;;;;;;;3.67;1.30;;;22.10;70.80;;;;;;5098524;28;20044;-72
2021/06/19 10:25:05;;;;;;;3.38;1.85;;;22.10;71.00;;;;;;5098277;28;20043;-73
2021/06/19 10:27:33;;;;;;;5.30;2.40;;;22.10;70.40;;;;;;5098312;28;20044;-73
2021/06/19 10:30:01;;;;;;;4.85;2.67;;;22.10;69.20;;;;;;5097987;28;20052;-72
2021/06/19 10:32:40;;;;;;;6.57;2.60;;;22.10;69.50;;;;;;5098177;28;20093;-73
2021/06/19 10:35:07;;;;;;;4.65;1.98;;;22.00;69.80;;;;;;5098170;28;20044;-72
2021/06/19 10:37:33;;;;;;;3.17;2.00;;;22.10;70.00;;;;;;5098033;28;20040;-73
2021/06/19 10:40:22;;;;;;;4.82;1.60;;;22.10;70.20;;;;;;5115620;28;20138;-71
2021/06/19 10:42:49;;;;;;;6.00;1.40;;;22.10;70.30;;;;;;5118579;28;20040;-74
2021/06/19 10:45:22;;;;;;;3.85;1.70;;;22.10;70.50;;;;;;5118485;28;20458;-73
2021/06/19 10:47:59;;;;;;;4.97;1.70;;;22.20;70.60;;;;;;5117083;28;20039;-74
2021/06/19 10:50:26;;;;;;;4.63;1.50;;;22.20;70.70;;;;;;5098020;28;20055;-74
2021/06/19 10:53:11;;;;;;;6.00;1.80;;;22.20;70.80;;;;;;5097844;28;20529;-74
2021/06/19 10:55:43;;;;;;;15.20;2.40;;;22.20;70.80;;;;;;5097549;28;20354;-74
2021/06/19 10:58:18;;;;;;;5.20;1.63;;;22.20;70.90;;;;;;5100670;28;20083;-73
2021/06/19 11:00:50;;;;;;;5.50;2.15;;;22.30;71.00;;;;;;5118071;28;20458;-73
2021/06/19 11:03:18;;;;;;;4.75;1.70;;;22.20;70.90;;;;;;5118490;28;20478;-72
2021/06/19 11:05:52;;;;;;;5.38;2.90;;;22.30;70.90;;;;;;5118092;28;20039;-73
2021/06/19 11:08:19;;;;;;;6.97;3.42;;;22.30;68.60;;;;;;5113441;28;20036;-72
2021/06/19 11:10:45;;;;;;;7.10;3.70;;;22.20;67.60;;;;;;5097541;28;20059;-72
2021/06/19 11:13:33;;;;;;;9.00;3.80;;;22.00;67.90;;;;;;5096750;28;20040;-74
2021/06/19 11:16:01;;;;;;;9.00;3.42;;;21.90;68.10;;;;;;5097386;28;20071;-72
2021/06/19 11:18:51;;;;;;;6.50;3.30;;;21.90;68.00;;;;;;5102899;28;20126;-73
2021/06/19 11:21:25;;;;;;;6.40;3.17;;;21.80;68.40;;;;;;5117357;28;20040;-75
2021/06/19 11:24:00;;;;;;;6.80;3.03;;;21.90;68.70;;;;;;5117547;28;20044;-73
2021/06/19 11:27:01;;;;;;;7.22;3.40;;;21.90;69.00;;;;;;5118029;28;20130;-73
2021/06/19 11:29:40;;;;;;;6.97;3.10;;;21.90;69.20;;;;;;5104168;28;20044;-73
2021/06/19 11:32:34;;;;;;;7.15;3.20;;;21.90;69.40;;;;;;5097478;28;20048;-73
2021/06/19 11:35:20;;;;;;;4.30;2.50;;;21.90;69.40;;;;;;5097306;28;20044;-73
2021/06/19 11:37:55;;;;;;;6.78;3.30;;;22.00;69.40;;;;;;5097442;28;20536;-73
2021/06/19 11:40:36;;;;;;;6.75;3.28;;;22.00;69.70;;;;;;5117036;28;20135;-72
2021/06/19 11:43:03;;;;;;;6.70;3.17;;;22.00;69.70;;;;;;5117501;28;20039;-73
2021/06/19 11:45:29;;;;;;;5.40;2.90;;;22.00;69.90;;;;;;5117116;28;20063;-73
2021/06/19 11:48:14;;;;;;;6.18;2.83;;;22.00;69.80;;;;;;5100904;28;20040;-73
2021/06/19 11:50:44;;;;;;;6.57;2.88;;;22.00;69.70;;;;;;5096984;28;20067;-72
2021/06/19 11:53:32;;;;;;;4.60;3.67;;;22.10;69.50;;;;;;5097030;28;20044;-73
2021/06/19 11:56:21;;;;;;;8.20;3.55;;;22.00;69.40;;;;;;5096396;28;20122;-73
2021/06/19 11:58:51;;;;;;;10.88;3.35;;;22.00;69.60;;;;;;5095745;28;20055;-78
2021/06/19 12:01:19;;;;;;;11.15;3.47;;;22.00;69.90;;;;;;5097533;28;20416;-73
2021/06/19 12:03:47;;;;;;;16.23;4.35;;;22.00;70.20;;;;;;5096608;28;20036;-73
2021/06/19 12:06:13;;;;;;;13.98;4.57;;;22.00;70.40;;;;;;5096339;28;20043;-75
2021/06/19 12:08:40;;;;;;;19.95;4.88;;;22.10;70.50;;;;;;5096453;28;20040;-74
2021/06/19 12:11:06;;;;;;;9.70;3.90;;;22.10;70.90;;;;;;5096626;28;20047;-72
2021/06/19 12:13:35;;;;;;;20.98;4.53;;;22.10;70.90;;;;;;5116609;28;20380;-73
2021/06/19 12:16:03;;;;;;;16.23;4.57;;;22.10;71.30;;;;;;5116864;28;20070;-74
2021/06/19 12:18:29;;;;;;;10.68;4.03;;;22.10;71.00;;;;;;5116769;28;20049;-73
2021/06/19 12:21:16;;;;;;;15.25;4.35;;;22.10;70.90;;;;;;5116428;28;20055;-73
2021/06/19 12:23:44;;;;;;;11.38;3.72;;;22.10;70.70;;;;;;5095804;28;20097;-72
2021/06/19 12:26:15;;;;;;;12.07;4.25;;;22.10;70.70;;;;;;5096334;28;20047;-72
2021/06/19 12:28:46;;;;;;;9.48;3.58;;;22.10;70.60;;;;;;5096353;28;20032;-73
2021/06/19 12:31:14;;;;;;;9.70;3.92;;;22.10;70.50;;;;;;5096862;28;20093;-72
2021/06/19 12:33:43;;;;;;;10.07;3.95;;;22.10;70.50;;;;;;5116288;28;20367;-73
2021/06/19 12:36:10;;;;;;;7.88;3.80;;;22.20;70.50;;;;;;5116660;28;20114;-73
2021/06/19 12:38:36;;;;;;;10.60;4.00;;;22.10;70.40;;;;;;5116604;28;20126;-73
2021/06/19 12:41:06;;;;;;;12.25;3.92;;;22.10;70.40;;;;;;5116395;28;20126;-74
2021/06/19 12:43:31;;;;;;;6.80;3.50;;;22.20;70.40;;;;;;5115623;28;20054;-72
2021/06/19 12:45:58;;;;;;;7.45;3.55;;;22.20;70.40;;;;;;5116349;28;20435;-72
2021/06/19 12:48:38;;;;;;;7.38;3.88;;;22.20;70.40;;;;;;5116200;28;20051;-73
2021/06/19 12:51:07;;;;;;;6.13;3.50;;;22.20;70.40;;;;;;5116291;28;20052;-73